createdAt,value
2022-07-26T00:04:24.220Z,99.90
2022-07-26T00:10:17.281Z,99.90
2022-07-26T00:16:19.082Z,99.90
2022-07-26T00:22:30.267Z,99.90
2022-07-26T00:28:23.316Z,99.90
2022-07-26T00:34:17.747Z,99.90
2022-07-26T00:40:12.072Z,99.90
2022-07-26T00:46:10.943Z,99.90
2022-07-26T00:52:11.369Z,99.90
2022-07-26T00:58:06.331Z,99.90
2022-07-26T01:03:59.344Z,99.90
2022-07-26T01:10:00.871Z,99.90
2022-07-26T01:16:01.446Z,99.90
2022-07-26T01:21:58.598Z,99.90
2022-07-26T01:27:51.561Z,99.90
2022-07-26T01:33:44.652Z,99.90
2022-07-26T01:39:49.205Z,99.90
2022-07-26T01:45:42.217Z,99.90
2022-07-26T01:51:41.152Z,99.90
2022-07-26T01:57:36.595Z,99.90
2022-07-26T02:03:29.625Z,99.90
2022-07-26T02:09:22.653Z,99.90
2022-07-26T02:15:17.986Z,99.90
2022-07-26T02:21:11.306Z,99.90
2022-07-26T02:27:07.196Z,99.90
2022-07-26T02:33:01.576Z,99.90
2022-07-26T02:38:56.905Z,99.90
2022-07-26T02:44:49.918Z,99.90
2022-07-26T02:50:46.820Z,99.90
2022-07-26T02:56:40.054Z,99.90
2022-07-26T03:02:33.197Z,99.90
2022-07-26T03:08:27.682Z,99.90
2022-07-26T03:14:22.886Z,99.90
2022-07-26T03:20:15.989Z,99.90
2022-07-26T03:26:10.518Z,99.90
2022-07-26T03:32:03.502Z,99.90
2022-07-26T03:37:56.573Z,99.90
2022-07-26T03:43:50.917Z,99.90
2022-07-26T03:49:46.469Z,99.90
2022-07-26T03:55:57.609Z,99.90
2022-07-26T04:01:52.410Z,99.90
2022-07-26T04:07:53.169Z,99.90
2022-07-26T04:13:49.757Z,99.90
2022-07-26T04:19:44.166Z,99.90
2022-07-26T04:25:39.420Z,99.90
2022-07-26T04:31:34.250Z,99.90
2022-07-26T04:37:32.885Z,99.90
2022-07-26T04:43:26.150Z,99.90
2022-07-26T04:49:19.261Z,99.90
2022-07-26T04:55:13.851Z,99.90
2022-07-26T05:01:10.916Z,99.90
2022-07-26T05:07:05.360Z,99.90
2022-07-26T05:12:59.970Z,99.90
2022-07-26T05:18:55.992Z,1.00
2022-07-26T05:24:59.475Z,1.00
2022-07-26T05:30:54.132Z,1.00
2022-07-26T05:36:57.587Z,1.00
2022-07-26T05:42:53.096Z,1.00
2022-07-26T05:48:47.591Z,1.00
2022-07-26T05:54:41.434Z,1.00
2022-07-26T06:00:34.889Z,1.00
2022-07-26T06:12:36.274Z,1.00
2022-07-26T06:18:29.323Z,1.00
2022-07-26T06:24:26.233Z,1.00
2022-07-26T06:30:19.353Z,1.00
2022-07-26T06:36:12.573Z,1.00
2022-07-26T06:42:07.337Z,1.00
2022-07-26T06:48:08.781Z,1.00
2022-07-26T06:54:01.886Z,1.00
2022-07-26T07:00:01.350Z,1.00
2022-07-26T07:05:54.418Z,1.00
2022-07-26T07:12:00.356Z,1.00
2022-07-26T07:18:13.734Z,1.00
2022-07-26T07:24:08.222Z,1.00
2022-07-26T07:30:01.587Z,1.00
2022-07-26T07:35:58.478Z,1.00
2022-07-26T07:41:51.617Z,1.00
2022-07-26T07:47:58.681Z,1.00
2022-07-26T07:53:56.620Z,1.00
2022-07-26T07:59:50.423Z,1.00
2022-07-26T08:05:43.777Z,99.90
2022-07-26T08:17:54.690Z,99.90
2022-07-26T08:23:50.162Z,99.90
2022-07-26T08:29:46.978Z,99.90
2022-07-26T08:35:42.432Z,99.90
2022-07-26T08:41:36.852Z,99.90
2022-07-26T08:47:35.484Z,99.90
2022-07-26T08:53:40.134Z,99.90
2022-07-26T08:59:36.370Z,99.90
2022-07-26T09:05:43.153Z,99.90
2022-07-26T09:11:36.208Z,99.90
2022-07-26T09:17:42.174Z,99.90
2022-07-26T09:23:44.850Z,99.90
2022-07-26T09:29:46.471Z,99.90
2022-07-26T09:35:50.543Z,99.90
2022-07-26T09:42:04.830Z,99.90
2022-07-26T09:48:01.691Z,99.90
2022-07-26T09:54:03.432Z,99.90
2022-07-26T10:00:03.181Z,99.90
2022-07-26T10:06:03.821Z,99.90
2022-07-26T10:12:00.898Z,99.90
2022-07-26T10:17:55.496Z,99.90
2022-07-26T10:23:49.892Z,99.90
2022-07-26T10:29:46.167Z,99.90
2022-07-26T10:35:44.893Z,99.90
2022-07-26T10:41:41.220Z,99.90
2022-07-26T10:47:35.498Z,99.90
2022-07-26T10:53:30.644Z,99.90
2022-07-26T10:59:54.970Z,99.90
2022-07-26T11:05:46.385Z,99.90
2022-07-26T11:11:46.495Z,99.90
2022-07-26T11:17:39.928Z,99.90
2022-07-26T11:23:35.252Z,67.80
2022-07-26T11:29:40.652Z,33.90
2022-07-26T11:35:34.766Z,20.60
2022-07-26T11:41:34.614Z,22.30
2022-07-26T11:47:29.503Z,19.00
2022-07-26T11:53:25.020Z,22.70
2022-07-26T11:59:19.372Z,14.50
2022-07-26T12:05:22.399Z,4.90
2022-07-26T12:11:16.966Z,1.00
2022-07-26T12:17:15.406Z,1.00
2022-07-26T12:23:09.820Z,1.00
2022-07-26T12:29:18.663Z,1.00
2022-07-26T12:35:14.841Z,1.00
2022-07-26T12:41:10.731Z,1.00
2022-07-26T12:47:07.173Z,1.00
2022-07-26T12:53:02.809Z,1.00
2022-07-26T12:59:01.962Z,1.00
2022-07-26T13:05:00.035Z,1.00
2022-07-26T13:10:58.152Z,1.00
2022-07-26T13:17:03.782Z,1.00
2022-07-26T13:23:01.346Z,1.00
2022-07-26T13:28:54.680Z,1.00
2022-07-26T13:34:49.086Z,1.00
2022-07-26T13:40:42.756Z,1.00
2022-07-26T13:46:41.947Z,1.00
2022-07-26T13:52:37.138Z,1.00
2022-07-26T13:58:30.217Z,1.00
2022-07-26T14:04:24.303Z,1.00
2022-07-26T14:10:26.807Z,1.00
2022-07-26T14:16:20.813Z,1.00
2022-07-26T14:22:13.960Z,1.00
2022-07-26T14:28:10.933Z,1.00
2022-07-26T14:34:04.030Z,1.00
2022-07-26T14:39:59.972Z,1.00
2022-07-26T14:45:54.563Z,1.00
2022-07-26T14:51:48.087Z,1.00
2022-07-26T14:57:42.609Z,1.00
2022-07-26T15:03:37.002Z,1.00
2022-07-26T15:09:30.945Z,1.00
2022-07-26T15:15:24.146Z,1.00
2022-07-26T15:21:18.689Z,1.00
2022-07-26T15:27:11.791Z,1.00
2022-07-26T15:33:04.863Z,1.00
2022-07-26T15:39:15.935Z,1.00
2022-07-26T15:45:15.231Z,1.00
2022-07-26T15:51:09.707Z,1.00
2022-07-26T15:57:06.612Z,1.00
2022-07-26T16:02:59.708Z,1.00
2022-07-26T16:09:15.563Z,1.00
2022-07-26T16:15:12.079Z,1.00
2022-07-26T16:21:05.335Z,1.00
2022-07-26T16:26:58.793Z,1.00
2022-07-26T16:32:53.309Z,1.00
2022-07-26T16:38:51.419Z,1.00
2022-07-26T16:44:46.822Z,1.00
2022-07-26T16:50:41.535Z,1.00
2022-07-26T16:56:35.094Z,1.00
2022-07-26T17:02:28.382Z,1.00
2022-07-26T17:08:24.731Z,1.00
2022-07-26T17:14:18.040Z,1.00
2022-07-26T17:20:11.996Z,1.00
2022-07-26T17:26:07.719Z,1.00
2022-07-26T17:32:00.798Z,1.00
2022-07-26T17:37:55.949Z,1.00
2022-07-26T17:43:53.857Z,1.00
2022-07-26T17:49:49.709Z,1.00
2022-07-26T17:55:43.103Z,1.00
2022-07-26T18:01:37.463Z,1.00
2022-07-26T18:07:43.360Z,1.00
2022-07-26T18:13:39.657Z,1.00
2022-07-26T18:19:34.018Z,1.00
2022-07-26T18:25:27.055Z,1.00
2022-07-26T18:31:20.525Z,1.00
2022-07-26T18:37:20.129Z,1.00
2022-07-26T18:43:13.080Z,1.00
2022-07-26T18:49:09.761Z,1.00
2022-07-26T18:55:17.611Z,1.00
2022-07-26T19:01:10.882Z,1.00
2022-07-26T19:07:17.960Z,1.00
2022-07-26T19:13:14.816Z,1.00
2022-07-26T19:19:11.357Z,1.00
2022-07-26T19:25:06.161Z,1.00
2022-07-26T19:31:25.953Z,1.00
2022-07-26T19:37:21.262Z,1.00
2022-07-26T19:43:16.120Z,1.00
2022-07-26T19:49:17.740Z,1.00
2022-07-26T19:55:11.232Z,1.00
2022-07-26T20:01:12.365Z,1.00
2022-07-26T20:07:09.252Z,1.00
2022-07-26T20:13:02.264Z,1.00
2022-07-26T20:18:55.261Z,1.00
2022-07-26T20:24:58.423Z,1.00
2022-07-26T20:30:51.692Z,1.00
2022-07-26T20:36:49.650Z,1.00
2022-07-26T20:42:44.395Z,1.00
2022-07-26T20:48:38.202Z,3.10
2022-07-26T20:54:41.651Z,12.40
2022-07-26T21:00:36.122Z,17.40
2022-07-26T21:06:29.640Z,26.70
2022-07-26T21:12:22.806Z,27.00
2022-07-26T21:18:17.242Z,26.20
2022-07-26T21:24:10.602Z,23.10
2022-07-26T21:30:11.417Z,23.70
2022-07-26T21:36:05.980Z,22.70
2022-07-26T21:41:59.016Z,13.70
2022-07-26T21:47:53.944Z,12.10
2022-07-26T21:53:56.238Z,11.80
2022-07-26T21:59:49.393Z,7.10
2022-07-26T22:05:43.408Z,8.40
2022-07-26T22:11:39.915Z,11.90
2022-07-26T22:17:33.054Z,15.30
2022-07-26T22:23:30.805Z,17.90
2022-07-26T22:29:37.904Z,12.30
2022-07-26T22:35:36.507Z,12.10
2022-07-26T22:41:51.479Z,14.20
2022-07-26T22:47:55.568Z,14.60
2022-07-26T22:53:49.581Z,19.20
2022-07-26T22:59:43.366Z,22.40
2022-07-26T23:05:47.578Z,23.70
2022-07-26T23:11:40.881Z,24.80
2022-07-26T23:17:33.971Z,26.10
2022-07-26T23:23:36.086Z,26.20
2022-07-26T23:29:29.197Z,25.30
2022-07-26T23:35:31.506Z,24.50
2022-07-26T23:41:26.883Z,23.10
2022-07-26T23:47:25.939Z,19.90
2022-07-26T23:53:19.081Z,21.20
2022-07-26T23:59:23.761Z,23.20
